RYR1JE EPMO-LBBG
Flight info
| Callsign | RYR1JE |
|---|---|
| Flight time | 1h 53m |
| Altitude | 37000 |
| Route | EVINA N744 OVBOR DCT KUKAM M66 BABKO DCT TAKOS DCT KARIL DCT LUGEB DCT MATEL T555 NESAR |
| Aircraft | B738/M-SDE3FGILRWY/SB1 |
Departure
| Time | 2026-05-06 09:16 |
|---|---|
| Airport | Warsaw Modlin Airport (EPMO) |
Arrival
| Time | 2026-05-06 11:09 |
|---|---|
| Airport | Burgas Airport (LBBG) |
| Time | Latitude | Longitude | Altitude | Speed | Heading |
|---|---|---|---|---|---|
| 2026-05-06 08:53 | 52.44751 | 20.65337 | 337 ft | 0 kts | 206° |
| 2026-05-06 09:07 | 52.44753 | 20.65339 | 337 ft | 2 kts | 206° |
| 2026-05-06 09:07 | 52.44776 | 20.65359 | 340 ft | 4 kts | 212° |
| 2026-05-06 09:07 | 52.44797 | 20.65386 | 332 ft | 4 kts | 233° |
| 2026-05-06 09:08 | 52.44806 | 20.65415 | 332 ft | 0 kts | 261° |
| 2026-05-06 09:11 | 52.44806 | 20.65414 | 332 ft | 0 kts | 261° |
| 2026-05-06 09:12 | 52.44805 | 20.65405 | 337 ft | 2 kts | 261° |
| 2026-05-06 09:12 | 52.44801 | 20.65362 | 337 ft | 5 kts | 261° |
| 2026-05-06 09:12 | 52.44793 | 20.65282 | 333 ft | 9 kts | 261° |
| 2026-05-06 09:12 | 52.44783 | 20.65170 | 337 ft | 11 kts | 261° |
| 2026-05-06 09:13 | 52.44770 | 20.65030 | 336 ft | 14 kts | 261° |
| 2026-05-06 09:13 | 52.44754 | 20.64867 | 337 ft | 15 kts | 261° |
| 2026-05-06 09:13 | 52.44737 | 20.64683 | 337 ft | 17 kts | 260° |
| 2026-05-06 09:13 | 52.44717 | 20.64483 | 336 ft | 19 kts | 261° |
| 2026-05-06 09:14 | 52.44697 | 20.64265 | 337 ft | 20 kts | 261° |
| 2026-05-06 09:14 | 52.44675 | 20.64031 | 336 ft | 21 kts | 261° |
| 2026-05-06 09:14 | 52.44652 | 20.63790 | 335 ft | 21 kts | 261° |
| 2026-05-06 09:14 | 52.44631 | 20.63561 | 336 ft | 15 kts | 261° |
| 2026-05-06 09:15 | 52.44682 | 20.63444 | 336 ft | 15 kts | 351° |
| 2026-05-06 09:15 | 52.44783 | 20.63420 | 332 ft | 14 kts | 352° |
| 2026-05-06 09:15 | 52.44881 | 20.63397 | 337 ft | 14 kts | 357° |
| 2026-05-06 09:15 | 52.44960 | 20.63478 | 337 ft | 15 kts | 78° |
| 2026-05-06 09:16 | 52.44986 | 20.63737 | 334 ft | 50 kts | 81° |
| 2026-05-06 09:16 | 52.45078 | 20.64714 | 337 ft | 122 kts | 81° |
| 2026-05-06 09:16 | 52.45240 | 20.66426 | 364 ft | 178 kts | 81° |
| 2026-05-06 09:16 | 52.45436 | 20.68408 | 1246 ft | 171 kts | 82° |
| 2026-05-06 09:17 | 52.45652 | 20.70328 | 2163 ft | 176 kts | 84° |
| 2026-05-06 09:17 | 52.45890 | 20.72457 | 2631 ft | 206 kts | 83° |
| 2026-05-06 09:17 | 52.46181 | 20.74934 | 2931 ft | 235 kts | 83° |
| 2026-05-06 09:17 | 52.46505 | 20.77634 | 3558 ft | 244 kts | 83° |
| 2026-05-06 09:18 | 52.46839 | 20.80411 | 4224 ft | 257 kts | 83° |
| 2026-05-06 09:18 | 52.47062 | 20.83451 | 4693 ft | 272 kts | 101° |
| 2026-05-06 09:18 | 52.46365 | 20.86217 | 5577 ft | 260 kts | 136° |
| 2026-05-06 09:18 | 52.44884 | 20.87757 | 6453 ft | 253 kts | 169° |
| 2026-05-06 09:19 | 52.43130 | 20.87961 | 7256 ft | 255 kts | 187° |
| 2026-05-06 09:19 | 52.41396 | 20.87322 | 8095 ft | 257 kts | 198° |
| 2026-05-06 09:19 | 52.39678 | 20.86409 | 8926 ft | 261 kts | 200° |
| 2026-05-06 09:19 | 52.37943 | 20.85447 | 9736 ft | 266 kts | 200° |
| 2026-05-06 09:20 | 52.36157 | 20.84457 | 10255 ft | 281 kts | 200° |
| 2026-05-06 09:20 | 52.34215 | 20.83387 | 10442 ft | 307 kts | 200° |
| 2026-05-06 09:20 | 52.32153 | 20.82264 | 10982 ft | 317 kts | 200° |
| 2026-05-06 09:20 | 52.30045 | 20.81127 | 11749 ft | 320 kts | 199° |
| 2026-05-06 09:21 | 52.27949 | 20.80007 | 12567 ft | 322 kts | 199° |
| 2026-05-06 09:21 | 52.25806 | 20.78867 | 13350 ft | 326 kts | 199° |
| 2026-05-06 09:21 | 52.23640 | 20.77718 | 14088 ft | 328 kts | 199° |
| 2026-05-06 09:21 | 52.21456 | 20.76562 | 14761 ft | 333 kts | 199° |
| 2026-05-06 09:22 | 52.19242 | 20.75393 | 15425 ft | 337 kts | 199° |
| 2026-05-06 09:22 | 52.17002 | 20.74211 | 16122 ft | 340 kts | 200° |
| 2026-05-06 09:22 | 52.14739 | 20.73019 | 16773 ft | 344 kts | 200° |
| 2026-05-06 09:22 | 52.12446 | 20.71811 | 17421 ft | 349 kts | 200° |
| 2026-05-06 09:23 | 52.10124 | 20.70590 | 18077 ft | 352 kts | 200° |
| 2026-05-06 09:23 | 52.07781 | 20.69360 | 18642 ft | 356 kts | 200° |
| 2026-05-06 09:23 | 52.05417 | 20.68120 | 19227 ft | 359 kts | 200° |
| 2026-05-06 09:23 | 52.03032 | 20.66870 | 19821 ft | 361 kts | 200° |
| 2026-05-06 09:24 | 52.00631 | 20.65613 | 20379 ft | 365 kts | 200° |
| 2026-05-06 09:24 | 51.98203 | 20.64343 | 20930 ft | 368 kts | 200° |
| 2026-05-06 09:24 | 51.95753 | 20.63064 | 21471 ft | 372 kts | 200° |
| 2026-05-06 09:24 | 51.93281 | 20.61773 | 22020 ft | 375 kts | 200° |
| 2026-05-06 09:25 | 51.90792 | 20.60476 | 22551 ft | 378 kts | 200° |
| 2026-05-06 09:25 | 51.88276 | 20.59166 | 23049 ft | 382 kts | 200° |
| 2026-05-06 09:25 | 51.85739 | 20.57846 | 23513 ft | 385 kts | 200° |
| 2026-05-06 09:25 | 51.83179 | 20.56517 | 23966 ft | 387 kts | 200° |
| 2026-05-06 09:26 | 51.80612 | 20.55186 | 24437 ft | 389 kts | 200° |
| 2026-05-06 09:26 | 51.78028 | 20.53847 | 24883 ft | 391 kts | 200° |
| 2026-05-06 09:26 | 51.75434 | 20.52505 | 25308 ft | 393 kts | 200° |
| 2026-05-06 09:26 | 51.72826 | 20.51157 | 25728 ft | 395 kts | 200° |
| 2026-05-06 09:27 | 51.70201 | 20.49801 | 26146 ft | 397 kts | 200° |
| 2026-05-06 09:27 | 51.67557 | 20.48438 | 26563 ft | 399 kts | 200° |
| 2026-05-06 09:27 | 51.64907 | 20.47074 | 26964 ft | 401 kts | 200° |
| 2026-05-06 09:27 | 51.62238 | 20.45700 | 27361 ft | 403 kts | 200° |
| 2026-05-06 09:28 | 51.59592 | 20.44341 | 27726 ft | 406 kts | 200° |
| 2026-05-06 09:28 | 51.56897 | 20.42958 | 28118 ft | 408 kts | 200° |
| 2026-05-06 09:28 | 51.54189 | 20.41570 | 28491 ft | 410 kts | 200° |
| 2026-05-06 09:28 | 51.51433 | 20.40160 | 28854 ft | 412 kts | 200° |
| 2026-05-06 09:29 | 51.48699 | 20.38762 | 29207 ft | 414 kts | 200° |
| 2026-05-06 09:29 | 51.45987 | 20.37378 | 29552 ft | 415 kts | 200° |
| 2026-05-06 09:29 | 51.43189 | 20.35951 | 29875 ft | 417 kts | 200° |
| 2026-05-06 09:29 | 51.40412 | 20.34537 | 30154 ft | 419 kts | 200° |
| 2026-05-06 09:30 | 51.37667 | 20.33141 | 30457 ft | 420 kts | 200° |
| 2026-05-06 09:30 | 51.34888 | 20.31730 | 30844 ft | 418 kts | 199° |
| 2026-05-06 09:30 | 51.32119 | 20.30327 | 31262 ft | 416 kts | 199° |
| 2026-05-06 09:30 | 51.29359 | 20.28929 | 31639 ft | 415 kts | 199° |
| 2026-05-06 09:31 | 51.26609 | 20.27538 | 31985 ft | 415 kts | 199° |
| 2026-05-06 09:31 | 51.23858 | 20.26147 | 32341 ft | 414 kts | 199° |
| 2026-05-06 09:31 | 51.21116 | 20.24764 | 32726 ft | 413 kts | 199° |
| 2026-05-06 09:31 | 51.18383 | 20.23386 | 33078 ft | 411 kts | 199° |
| 2026-05-06 09:32 | 51.15654 | 20.22012 | 33420 ft | 411 kts | 199° |
| 2026-05-06 09:32 | 51.12935 | 20.20645 | 33766 ft | 410 kts | 199° |
| 2026-05-06 09:32 | 51.10219 | 20.19280 | 34058 ft | 409 kts | 199° |
| 2026-05-06 09:32 | 51.07506 | 20.17919 | 34289 ft | 410 kts | 199° |
| 2026-05-06 09:33 | 51.04785 | 20.16555 | 34504 ft | 410 kts | 199° |
| 2026-05-06 09:33 | 51.02064 | 20.15193 | 34749 ft | 410 kts | 199° |
| 2026-05-06 09:33 | 50.99344 | 20.13833 | 35011 ft | 410 kts | 199° |
| 2026-05-06 09:33 | 50.96625 | 20.12476 | 35240 ft | 410 kts | 200° |
| 2026-05-06 09:34 | 50.93903 | 20.11119 | 35461 ft | 410 kts | 200° |
| 2026-05-06 09:34 | 50.91178 | 20.09762 | 35697 ft | 410 kts | 200° |
| 2026-05-06 09:34 | 50.88455 | 20.08407 | 35907 ft | 410 kts | 200° |
| 2026-05-06 09:34 | 50.85728 | 20.07053 | 36085 ft | 411 kts | 200° |
| 2026-05-06 09:35 | 50.82994 | 20.05696 | 36279 ft | 412 kts | 200° |
| 2026-05-06 09:35 | 50.80258 | 20.04340 | 36506 ft | 412 kts | 200° |
| 2026-05-06 09:35 | 50.77566 | 20.03008 | 36733 ft | 411 kts | 200° |
| 2026-05-06 09:36 | 50.72069 | 20.00291 | 36792 ft | 415 kts | 200° |
| 2026-05-06 09:36 | 50.66573 | 19.97584 | 36786 ft | 412 kts | 200° |
| 2026-05-06 09:37 | 50.61130 | 19.94910 | 36794 ft | 409 kts | 200° |
| 2026-05-06 09:37 | 50.55719 | 19.92256 | 36799 ft | 407 kts | 200° |
| 2026-05-06 09:38 | 50.50281 | 19.89594 | 36809 ft | 413 kts | 200° |
| 2026-05-06 09:38 | 50.44742 | 19.86887 | 36807 ft | 421 kts | 200° |
| 2026-05-06 09:39 | 50.39103 | 19.84140 | 36820 ft | 428 kts | 200° |
| 2026-05-06 09:39 | 50.33722 | 19.81527 | 36830 ft | 433 kts | 200° |
| 2026-05-06 09:40 | 50.27945 | 19.78730 | 36818 ft | 436 kts | 200° |
| 2026-05-06 09:40 | 50.19224 | 19.74521 | 36829 ft | 438 kts | 200° |
| 2026-05-06 09:41 | 50.13405 | 19.71721 | 36823 ft | 437 kts | 200° |
| 2026-05-06 09:41 | 50.07597 | 19.68932 | 36827 ft | 437 kts | 200° |
| 2026-05-06 09:42 | 50.01795 | 19.66154 | 36830 ft | 436 kts | 200° |
| 2026-05-06 09:42 | 49.96010 | 19.63390 | 36823 ft | 435 kts | 200° |
| 2026-05-06 09:43 | 49.90229 | 19.60634 | 36828 ft | 434 kts | 200° |
| 2026-05-06 09:43 | 49.84459 | 19.57891 | 36825 ft | 433 kts | 200° |
| 2026-05-06 09:44 | 49.78700 | 19.55160 | 36824 ft | 433 kts | 200° |
| 2026-05-06 09:44 | 49.72946 | 19.52437 | 36833 ft | 432 kts | 200° |
| 2026-05-06 09:45 | 49.67197 | 19.49723 | 36831 ft | 432 kts | 200° |
| 2026-05-06 09:45 | 49.64288 | 19.48583 | 36810 ft | 435 kts | 188° |
| 2026-05-06 09:45 | 49.61242 | 19.48726 | 36874 ft | 441 kts | 176° |
| 2026-05-06 09:46 | 49.55305 | 19.51160 | 36838 ft | 453 kts | 159° |
| 2026-05-06 09:46 | 49.49760 | 19.55861 | 36839 ft | 457 kts | 154° |
| 2026-05-06 09:47 | 49.44218 | 19.60653 | 36840 ft | 456 kts | 157° |
| 2026-05-06 09:47 | 49.38542 | 19.64988 | 36851 ft | 456 kts | 158° |
| 2026-05-06 09:48 | 49.32854 | 19.69294 | 36857 ft | 456 kts | 158° |
| 2026-05-06 09:48 | 49.27176 | 19.73685 | 36860 ft | 457 kts | 157° |
| 2026-05-06 09:49 | 49.21508 | 19.78110 | 36864 ft | 458 kts | 157° |
| 2026-05-06 09:49 | 49.15825 | 19.82542 | 36887 ft | 458 kts | 157° |
| 2026-05-06 09:50 | 49.10143 | 19.86958 | 36887 ft | 458 kts | 157° |
| 2026-05-06 09:50 | 49.04457 | 19.91362 | 36896 ft | 458 kts | 157° |
| 2026-05-06 09:51 | 48.98776 | 19.95749 | 36888 ft | 458 kts | 157° |
| 2026-05-06 09:51 | 48.93141 | 20.00091 | 36918 ft | 457 kts | 157° |
| 2026-05-06 09:52 | 48.87451 | 20.04464 | 36917 ft | 458 kts | 157° |
| 2026-05-06 09:52 | 48.81751 | 20.08833 | 36909 ft | 459 kts | 157° |
| 2026-05-06 09:53 | 48.76043 | 20.13199 | 36915 ft | 460 kts | 157° |
| 2026-05-06 09:53 | 48.70324 | 20.17562 | 36913 ft | 460 kts | 157° |
| 2026-05-06 09:54 | 48.64603 | 20.21916 | 36910 ft | 461 kts | 157° |
| 2026-05-06 09:54 | 48.59017 | 20.26718 | 36912 ft | 466 kts | 147° |
| 2026-05-06 09:55 | 48.56716 | 20.30194 | 36918 ft | 474 kts | 127° |
| 2026-05-06 09:55 | 48.55165 | 20.34612 | 36935 ft | 480 kts | 115° |
| 2026-05-06 09:55 | 48.52554 | 20.43882 | 36921 ft | 480 kts | 119° |
| 2026-05-06 09:56 | 48.49418 | 20.52754 | 36918 ft | 479 kts | 122° |
| 2026-05-06 09:56 | 48.46164 | 20.61519 | 36918 ft | 480 kts | 122° |
| 2026-05-06 09:57 | 48.42969 | 20.70351 | 36920 ft | 480 kts | 121° |
| 2026-05-06 09:57 | 48.39820 | 20.79213 | 36925 ft | 480 kts | 121° |
| 2026-05-06 09:58 | 48.36677 | 20.88078 | 36933 ft | 480 kts | 121° |
| 2026-05-06 09:58 | 48.33526 | 20.96927 | 36928 ft | 481 kts | 120° |
| 2026-05-06 09:59 | 48.30382 | 21.05713 | 36933 ft | 480 kts | 120° |
| 2026-05-06 09:59 | 48.27213 | 21.14534 | 36940 ft | 480 kts | 120° |
| 2026-05-06 10:00 | 48.24038 | 21.23342 | 36955 ft | 480 kts | 120° |
| 2026-05-06 10:00 | 48.20855 | 21.32150 | 36934 ft | 480 kts | 120° |
| 2026-05-06 10:01 | 48.18184 | 21.39514 | 36947 ft | 480 kts | 120° |
| 2026-05-06 10:01 | 48.14474 | 21.49704 | 36960 ft | 479 kts | 120° |
| 2026-05-06 10:02 | 48.11793 | 21.57045 | 36958 ft | 479 kts | 120° |
| 2026-05-06 10:02 | 48.08612 | 21.65726 | 36965 ft | 479 kts | 120° |
| 2026-05-06 10:03 | 48.05383 | 21.74517 | 36961 ft | 479 kts | 120° |
| 2026-05-06 10:03 | 48.02166 | 21.83245 | 36972 ft | 479 kts | 120° |
| 2026-05-06 10:04 | 47.98964 | 21.91900 | 36967 ft | 480 kts | 120° |
| 2026-05-06 10:04 | 47.95731 | 22.00613 | 36971 ft | 480 kts | 120° |
| 2026-05-06 10:05 | 47.92495 | 22.09305 | 36972 ft | 480 kts | 120° |
| 2026-05-06 10:05 | 47.89248 | 22.17997 | 36974 ft | 480 kts | 120° |
| 2026-05-06 10:06 | 47.85998 | 22.26671 | 36971 ft | 480 kts | 120° |
| 2026-05-06 10:06 | 47.82742 | 22.35337 | 36973 ft | 479 kts | 120° |
| 2026-05-06 10:07 | 47.79447 | 22.43949 | 36972 ft | 479 kts | 123° |
| 2026-05-06 10:07 | 47.77431 | 22.47875 | 36975 ft | 476 kts | 135° |
| 2026-05-06 10:07 | 47.75094 | 22.51338 | 36988 ft | 475 kts | 137° |
| 2026-05-06 10:08 | 47.69979 | 22.59039 | 36988 ft | 476 kts | 132° |
| 2026-05-06 10:08 | 47.65699 | 22.66549 | 36993 ft | 477 kts | 131° |
| 2026-05-06 10:09 | 47.61407 | 22.74051 | 36992 ft | 477 kts | 132° |
| 2026-05-06 10:09 | 47.57029 | 22.81422 | 36990 ft | 477 kts | 133° |
| 2026-05-06 10:10 | 47.52592 | 22.88742 | 36994 ft | 477 kts | 133° |
| 2026-05-06 10:10 | 47.48146 | 22.96032 | 36995 ft | 478 kts | 133° |
| 2026-05-06 10:11 | 47.43692 | 23.03327 | 36988 ft | 478 kts | 133° |
| 2026-05-06 10:11 | 47.39240 | 23.10609 | 36992 ft | 478 kts | 133° |
| 2026-05-06 10:12 | 47.34777 | 23.17893 | 36986 ft | 478 kts | 133° |
| 2026-05-06 10:12 | 47.30339 | 23.25114 | 36977 ft | 479 kts | 133° |
| 2026-05-06 10:13 | 47.25870 | 23.32367 | 36985 ft | 478 kts | 133° |
| 2026-05-06 10:13 | 47.21391 | 23.39615 | 36982 ft | 479 kts | 133° |
| 2026-05-06 10:14 | 47.16911 | 23.46847 | 36982 ft | 479 kts | 133° |
| 2026-05-06 10:14 | 47.12420 | 23.54075 | 36981 ft | 479 kts | 133° |
| 2026-05-06 10:15 | 47.07928 | 23.61287 | 36989 ft | 479 kts | 133° |
| 2026-05-06 10:15 | 47.03434 | 23.68481 | 36992 ft | 479 kts | 133° |
| 2026-05-06 10:16 | 46.98932 | 23.75670 | 36985 ft | 478 kts | 133° |
| 2026-05-06 10:16 | 46.94426 | 23.82844 | 36996 ft | 478 kts | 133° |
| 2026-05-06 10:17 | 46.89922 | 23.89998 | 36990 ft | 478 kts | 133° |
| 2026-05-06 10:17 | 46.85415 | 23.97137 | 36998 ft | 478 kts | 133° |
| 2026-05-06 10:18 | 46.80899 | 24.04270 | 36987 ft | 478 kts | 133° |
| 2026-05-06 10:18 | 46.76386 | 24.11381 | 36994 ft | 478 kts | 133° |
| 2026-05-06 10:19 | 46.71866 | 24.18484 | 36992 ft | 478 kts | 133° |
| 2026-05-06 10:19 | 46.67342 | 24.25574 | 36997 ft | 477 kts | 133° |
| 2026-05-06 10:20 | 46.63580 | 24.31455 | 36991 ft | 478 kts | 133° |
| 2026-05-06 10:20 | 46.59053 | 24.38516 | 36997 ft | 477 kts | 133° |
| 2026-05-06 10:21 | 46.54520 | 24.45567 | 36995 ft | 478 kts | 133° |
| 2026-05-06 10:21 | 46.49951 | 24.52656 | 37007 ft | 482 kts | 133° |
| 2026-05-06 10:22 | 46.45347 | 24.59779 | 37000 ft | 484 kts | 133° |
| 2026-05-06 10:22 | 46.40776 | 24.66835 | 36984 ft | 482 kts | 133° |
| 2026-05-06 10:23 | 46.36186 | 24.73899 | 36996 ft | 482 kts | 133° |
| 2026-05-06 10:23 | 46.31585 | 24.80961 | 36996 ft | 482 kts | 133° |
| 2026-05-06 10:24 | 46.26985 | 24.88006 | 36993 ft | 482 kts | 133° |
| 2026-05-06 10:24 | 46.22376 | 24.95044 | 37000 ft | 482 kts | 133° |
| 2026-05-06 10:25 | 46.17765 | 25.02068 | 36991 ft | 482 kts | 133° |
| 2026-05-06 10:25 | 46.13143 | 25.09090 | 36991 ft | 482 kts | 133° |
| 2026-05-06 10:26 | 46.08522 | 25.16091 | 36997 ft | 482 kts | 133° |
| 2026-05-06 10:26 | 46.03897 | 25.23081 | 37001 ft | 482 kts | 133° |
| 2026-05-06 10:27 | 45.99266 | 25.30062 | 37000 ft | 482 kts | 133° |
| 2026-05-06 10:27 | 45.94638 | 25.37021 | 37013 ft | 482 kts | 133° |
| 2026-05-06 10:28 | 45.90004 | 25.43969 | 37014 ft | 481 kts | 133° |
| 2026-05-06 10:28 | 45.85365 | 25.50907 | 37014 ft | 481 kts | 133° |
| 2026-05-06 10:29 | 45.80757 | 25.57783 | 37021 ft | 481 kts | 133° |
| 2026-05-06 10:29 | 45.76118 | 25.64686 | 37019 ft | 481 kts | 133° |
| 2026-05-06 10:30 | 45.71470 | 25.71586 | 37020 ft | 481 kts | 133° |
| 2026-05-06 10:30 | 45.66824 | 25.78465 | 37019 ft | 481 kts | 133° |
| 2026-05-06 10:31 | 45.62174 | 25.85332 | 37025 ft | 481 kts | 133° |
| 2026-05-06 10:31 | 45.57518 | 25.92189 | 37020 ft | 481 kts | 133° |
| 2026-05-06 10:32 | 45.52858 | 25.99037 | 37043 ft | 481 kts | 133° |
| 2026-05-06 10:32 | 45.48186 | 26.05883 | 37038 ft | 481 kts | 133° |
| 2026-05-06 10:33 | 45.43520 | 26.12704 | 37043 ft | 480 kts | 133° |
| 2026-05-06 10:33 | 45.38851 | 26.19512 | 37047 ft | 481 kts | 133° |
| 2026-05-06 10:34 | 45.34172 | 26.26319 | 37044 ft | 481 kts | 133° |
| 2026-05-06 10:34 | 45.29484 | 26.33120 | 37052 ft | 481 kts | 133° |
| 2026-05-06 10:35 | 45.24799 | 26.39900 | 37034 ft | 481 kts | 133° |
| 2026-05-06 10:35 | 45.20103 | 26.46680 | 37043 ft | 482 kts | 133° |
| 2026-05-06 10:36 | 45.15405 | 26.53445 | 37056 ft | 481 kts | 133° |
| 2026-05-06 10:36 | 45.10708 | 26.60192 | 37044 ft | 481 kts | 133° |
| 2026-05-06 10:37 | 45.06002 | 26.66934 | 37041 ft | 481 kts | 133° |
| 2026-05-06 10:37 | 45.01296 | 26.73661 | 37046 ft | 481 kts | 133° |
| 2026-05-06 10:38 | 44.96586 | 26.80376 | 37048 ft | 481 kts | 133° |
| 2026-05-06 10:38 | 44.91870 | 26.87082 | 37049 ft | 481 kts | 133° |
| 2026-05-06 10:39 | 44.87154 | 26.93774 | 37049 ft | 481 kts | 133° |
| 2026-05-06 10:39 | 44.82427 | 27.00463 | 37046 ft | 481 kts | 133° |
| 2026-05-06 10:40 | 44.77699 | 27.07138 | 37048 ft | 481 kts | 133° |
| 2026-05-06 10:40 | 44.72973 | 27.13793 | 37049 ft | 481 kts | 133° |
| 2026-05-06 10:41 | 44.68240 | 27.20441 | 37053 ft | 481 kts | 134° |
| 2026-05-06 10:41 | 44.63507 | 27.27075 | 37049 ft | 481 kts | 134° |
| 2026-05-06 10:42 | 44.58764 | 27.33705 | 37062 ft | 481 kts | 134° |
| 2026-05-06 10:42 | 44.54027 | 27.40312 | 37056 ft | 481 kts | 134° |
| 2026-05-06 10:43 | 44.49315 | 27.46866 | 37060 ft | 480 kts | 134° |
| 2026-05-06 10:44 | 44.42206 | 27.56726 | 37069 ft | 479 kts | 134° |
| 2026-05-06 10:44 | 44.37463 | 27.63284 | 37066 ft | 479 kts | 134° |
| 2026-05-06 10:45 | 44.32720 | 27.69828 | 37067 ft | 479 kts | 134° |
| 2026-05-06 10:45 | 44.27973 | 27.76361 | 37067 ft | 479 kts | 134° |
| 2026-05-06 10:46 | 44.23230 | 27.82872 | 37034 ft | 479 kts | 134° |
| 2026-05-06 10:46 | 44.20843 | 27.86144 | 36741 ft | 481 kts | 134° |
| 2026-05-06 10:46 | 44.18462 | 27.89402 | 36499 ft | 478 kts | 134° |
| 2026-05-06 10:46 | 44.16109 | 27.92619 | 36239 ft | 472 kts | 134° |
| 2026-05-06 10:47 | 44.13767 | 27.95816 | 35984 ft | 469 kts | 134° |
| 2026-05-06 10:47 | 44.11438 | 27.98993 | 35741 ft | 468 kts | 134° |
| 2026-05-06 10:47 | 44.09113 | 28.02160 | 35499 ft | 468 kts | 134° |
| 2026-05-06 10:47 | 44.06791 | 28.05321 | 35263 ft | 467 kts | 134° |
| 2026-05-06 10:48 | 44.04467 | 28.08479 | 35020 ft | 466 kts | 134° |
| 2026-05-06 10:48 | 44.02148 | 28.11628 | 34791 ft | 466 kts | 134° |
| 2026-05-06 10:48 | 43.99832 | 28.14768 | 34563 ft | 465 kts | 134° |
| 2026-05-06 10:48 | 43.97512 | 28.17910 | 34328 ft | 465 kts | 134° |
| 2026-05-06 10:49 | 43.95202 | 28.21036 | 34101 ft | 464 kts | 134° |
| 2026-05-06 10:49 | 43.92918 | 28.24123 | 33837 ft | 464 kts | 134° |
| 2026-05-06 10:49 | 43.90577 | 28.27284 | 33562 ft | 464 kts | 134° |
| 2026-05-06 10:49 | 43.88262 | 28.30407 | 33290 ft | 464 kts | 134° |
| 2026-05-06 10:50 | 43.85947 | 28.33524 | 33038 ft | 465 kts | 134° |
| 2026-05-06 10:50 | 43.83657 | 28.36606 | 32787 ft | 465 kts | 134° |
| 2026-05-06 10:50 | 43.81304 | 28.39770 | 32525 ft | 466 kts | 135° |
| 2026-05-06 10:50 | 43.78954 | 28.42869 | 32143 ft | 467 kts | 137° |
| 2026-05-06 10:51 | 43.76263 | 28.45386 | 31473 ft | 471 kts | 156° |
| 2026-05-06 10:51 | 43.73138 | 28.46477 | 31002 ft | 475 kts | 175° |
| 2026-05-06 10:51 | 43.69811 | 28.46008 | 30584 ft | 478 kts | 196° |
| 2026-05-06 10:51 | 43.66729 | 28.44400 | 30196 ft | 481 kts | 201° |
| 2026-05-06 10:52 | 43.63547 | 28.42760 | 29631 ft | 483 kts | 197° |
| 2026-05-06 10:52 | 43.60315 | 28.41482 | 29157 ft | 483 kts | 193° |
| 2026-05-06 10:52 | 43.57085 | 28.40450 | 28694 ft | 484 kts | 191° |
| 2026-05-06 10:52 | 43.53790 | 28.39455 | 28189 ft | 484 kts | 192° |
| 2026-05-06 10:53 | 43.50559 | 28.38268 | 27337 ft | 480 kts | 197° |
| 2026-05-06 10:53 | 43.47390 | 28.36746 | 26363 ft | 483 kts | 201° |
| 2026-05-06 10:53 | 43.44361 | 28.34905 | 25962 ft | 474 kts | 206° |
| 2026-05-06 10:53 | 43.41412 | 28.32776 | 25499 ft | 485 kts | 208° |
| 2026-05-06 10:54 | 43.38437 | 28.30524 | 24990 ft | 490 kts | 208° |
| 2026-05-06 10:54 | 43.35441 | 28.28323 | 24512 ft | 485 kts | 207° |
| 2026-05-06 10:54 | 43.32434 | 28.26233 | 24026 ft | 482 kts | 206° |
| 2026-05-06 10:54 | 43.29418 | 28.24243 | 23516 ft | 480 kts | 205° |
| 2026-05-06 10:55 | 43.26394 | 28.22320 | 22988 ft | 477 kts | 205° |
| 2026-05-06 10:55 | 43.23383 | 28.20439 | 22494 ft | 474 kts | 204° |
| 2026-05-06 10:55 | 43.20392 | 28.18582 | 21954 ft | 467 kts | 204° |
| 2026-05-06 10:55 | 43.17440 | 28.16746 | 21200 ft | 464 kts | 205° |
| 2026-05-06 10:56 | 43.14513 | 28.14921 | 20357 ft | 462 kts | 205° |
| 2026-05-06 10:56 | 43.11594 | 28.13095 | 19528 ft | 462 kts | 205° |
| 2026-05-06 10:56 | 43.08670 | 28.11264 | 18760 ft | 460 kts | 205° |
| 2026-05-06 10:56 | 43.05771 | 28.09448 | 18007 ft | 457 kts | 205° |
| 2026-05-06 10:57 | 43.02899 | 28.07649 | 17322 ft | 451 kts | 205° |
| 2026-05-06 10:57 | 43.00066 | 28.05878 | 16675 ft | 445 kts | 205° |
| 2026-05-06 10:57 | 42.97265 | 28.04128 | 16066 ft | 439 kts | 205° |
| 2026-05-06 10:57 | 42.94508 | 28.02408 | 15578 ft | 433 kts | 205° |
| 2026-05-06 10:58 | 42.91795 | 28.00718 | 15143 ft | 426 kts | 205° |
| 2026-05-06 10:58 | 42.89101 | 27.99041 | 14717 ft | 427 kts | 205° |
| 2026-05-06 10:58 | 42.86382 | 27.97349 | 14263 ft | 430 kts | 205° |
| 2026-05-06 10:58 | 42.84173 | 27.95976 | 13897 ft | 428 kts | 205° |
| 2026-05-06 10:59 | 42.81487 | 27.94308 | 13425 ft | 424 kts | 205° |
| 2026-05-06 10:59 | 42.78809 | 27.92646 | 12981 ft | 420 kts | 205° |
| 2026-05-06 10:59 | 42.76154 | 27.91002 | 12548 ft | 417 kts | 205° |
| 2026-05-06 10:59 | 42.73557 | 27.89313 | 12117 ft | 411 kts | 210° |
| 2026-05-06 11:00 | 42.71371 | 27.86911 | 11687 ft | 399 kts | 230° |
| 2026-05-06 11:00 | 42.69602 | 27.84071 | 11306 ft | 389 kts | 232° |
| 2026-05-06 11:00 | 42.67809 | 27.81367 | 10918 ft | 382 kts | 227° |
| 2026-05-06 11:00 | 42.65899 | 27.78884 | 10488 ft | 377 kts | 225° |
| 2026-05-06 11:01 | 42.64011 | 27.76528 | 10176 ft | 369 kts | 225° |
| 2026-05-06 11:01 | 42.62139 | 27.74136 | 9852 ft | 362 kts | 226° |
| 2026-05-06 11:01 | 42.60343 | 27.71778 | 9433 ft | 357 kts | 226° |
| 2026-05-06 11:01 | 42.58604 | 27.69459 | 9086 ft | 351 kts | 226° |
| 2026-05-06 11:02 | 42.56873 | 27.67152 | 8996 ft | 338 kts | 226° |
| 2026-05-06 11:02 | 42.55264 | 27.65013 | 8965 ft | 323 kts | 227° |
| 2026-05-06 11:02 | 42.53686 | 27.62918 | 8983 ft | 308 kts | 227° |
| 2026-05-06 11:02 | 42.52202 | 27.60951 | 8967 ft | 288 kts | 227° |
| 2026-05-06 11:03 | 42.50813 | 27.59111 | 8961 ft | 272 kts | 227° |
| 2026-05-06 11:03 | 42.49460 | 27.57317 | 8953 ft | 271 kts | 227° |
| 2026-05-06 11:03 | 42.48091 | 27.55499 | 8466 ft | 279 kts | 227° |
| 2026-05-06 11:03 | 42.46693 | 27.53645 | 7891 ft | 283 kts | 227° |
| 2026-05-06 11:04 | 42.45274 | 27.51767 | 7305 ft | 288 kts | 227° |
| 2026-05-06 11:04 | 42.43829 | 27.49856 | 6679 ft | 293 kts | 227° |
| 2026-05-06 11:04 | 42.42360 | 27.47916 | 6040 ft | 297 kts | 226° |
| 2026-05-06 11:04 | 42.40924 | 27.45884 | 5370 ft | 300 kts | 236° |
| 2026-05-06 11:05 | 42.40149 | 27.43323 | 4692 ft | 296 kts | 266° |
| 2026-05-06 11:05 | 42.40342 | 27.40598 | 4050 ft | 291 kts | 290° |
| 2026-05-06 11:05 | 42.41283 | 27.38207 | 3365 ft | 288 kts | 313° |
| 2026-05-06 11:05 | 42.42911 | 27.36725 | 2713 ft | 285 kts | 345° |
| 2026-05-06 11:06 | 42.44853 | 27.36688 | 2102 ft | 282 kts | 19° |
| 2026-05-06 11:06 | 42.46572 | 27.37799 | 1846 ft | 266 kts | 36° |
| 2026-05-06 11:06 | 42.47928 | 27.39372 | 1733 ft | 249 kts | 46° |
| 2026-05-06 11:06 | 42.49084 | 27.40953 | 1709 ft | 219 kts | 47° |
| 2026-05-06 11:07 | 42.50083 | 27.42326 | 1675 ft | 190 kts | 48° |
| 2026-05-06 11:07 | 42.50974 | 27.43530 | 1486 ft | 174 kts | 47° |
| 2026-05-06 11:07 | 42.51816 | 27.44651 | 1296 ft | 168 kts | 46° |
| 2026-05-06 11:07 | 42.52611 | 27.45700 | 1081 ft | 151 kts | 46° |
| 2026-05-06 11:08 | 42.53334 | 27.46654 | 874 ft | 141 kts | 49° |
| 2026-05-06 11:08 | 42.53794 | 27.47266 | 747 ft | 138 kts | 48° |
| 2026-05-06 11:08 | 42.54495 | 27.48170 | 536 ft | 139 kts | 48° |
| 2026-05-06 11:08 | 42.55177 | 27.49059 | 408 ft | 138 kts | 49° |
| 2026-05-06 11:09 | 42.55836 | 27.49959 | 250 ft | 128 kts | 45° |
| 2026-05-06 11:09 | 42.56412 | 27.50732 | 173 ft | 100 kts | 45° |
| 2026-05-06 11:09 | 42.56803 | 27.51248 | 172 ft | 57 kts | 44° |
| 2026-05-06 11:09 | 42.57022 | 27.51538 | 174 ft | 41 kts | 44° |
| 2026-05-06 11:10 | 42.57166 | 27.51730 | 173 ft | 28 kts | 44° |
| 2026-05-06 11:10 | 42.57261 | 27.51868 | 172 ft | 13 kts | 64° |
| 2026-05-06 11:10 | 42.57276 | 27.51987 | 172 ft | 12 kts | 89° |
| 2026-05-06 11:10 | 42.57278 | 27.52103 | 172 ft | 12 kts | 88° |
| 2026-05-06 11:11 | 42.57259 | 27.52211 | 173 ft | 12 kts | 132° |
| 2026-05-06 11:11 | 42.57185 | 27.52228 | 173 ft | 12 kts | 205° |
| 2026-05-06 11:11 | 42.57123 | 27.52160 | 173 ft | 11 kts | 220° |
| 2026-05-06 11:11 | 42.57059 | 27.52088 | 173 ft | 13 kts | 220° |
| 2026-05-06 11:12 | 42.56983 | 27.52001 | 173 ft | 16 kts | 220° |
| 2026-05-06 11:12 | 42.56905 | 27.51913 | 173 ft | 14 kts | 219° |
| 2026-05-06 11:12 | 42.56832 | 27.51823 | 173 ft | 15 kts | 227° |
| 2026-05-06 11:12 | 42.56762 | 27.51716 | 173 ft | 16 kts | 229° |
| 2026-05-06 11:13 | 42.56691 | 27.51602 | 173 ft | 10 kts | 229° |
| 2026-05-06 11:13 | 42.56643 | 27.51571 | 173 ft | 4 kts | 179° |
| 2026-05-06 11:13 | 42.56615 | 27.51575 | 173 ft | 2 kts | 170° |
| 2026-05-06 11:14 | 42.56613 | 27.51575 | 173 ft | 1 kts | 170° |